Time;durP1;ratioP1;P1;durP2;ratioP2;P2;SDS_P1;SDS_P2;PMS_P1;PMS_P2;Temp;Humidity;BMP_temperature;BMP_pressure;BME280_temperature;BME280_humidity;BME280_pressure;Samples;Min_cycle;Max_cycle;Signal;HPM_P1;HPM_P2
2022/01/15 00:00:51;;;;;;;388.02;282.98;;;;;;;23.99;38.36;102702.28;5090538;27;20035;-46
2022/01/15 00:03:19;;;;;;;385.52;278.77;;;;;;;24.09;38.01;102714.91;5125594;27;20046;-45
2022/01/15 00:05:48;;;;;;;377.85;279.45;;;;;;;24.09;38.24;102707.97;5125844;27;20037;-45
2022/01/15 00:08:16;;;;;;;387.73;283.83;;;;;;;24.13;37.79;102706.34;5125657;27;20055;-45
2022/01/15 00:10:45;;;;;;;384.45;282.00;;;;;;;24.07;37.95;102714.00;5125215;27;20618;-46
2022/01/15 00:13:30;;;;;;;381.10;277.67;;;;;;;24.00;38.24;102718.06;5125134;27;20127;-47
2022/01/15 00:19:00;;;;;;;394.45;281.60;;;;;;;24.03;38.15;102710.31;5114441;27;20070;-46
2022/01/15 00:21:29;;;;;;;374.17;274.65;;;;;;;24.01;37.99;102704.13;5125145;27;20031;-45
2022/01/15 00:23:56;;;;;;;388.05;282.58;;;;;;;24.04;37.99;102696.38;5125208;27;20035;-46
2022/01/15 00:26:25;;;;;;;376.95;274.77;;;;;;;23.99;37.73;102692.72;5106925;27;20035;-45
2022/01/15 00:28:53;;;;;;;382.20;277.45;;;;;;;23.97;38.11;102695.25;5125573;27;20029;-45
2022/01/15 00:31:22;;;;;;;376.25;274.77;;;;;;;23.99;37.88;102691.78;5124647;27;20400;-46
2022/01/15 00:33:51;;;;;;;365.80;273.58;;;;;;;24.01;37.71;102677.91;5125109;27;20023;-46
2022/01/15 00:36:19;;;;;;;394.15;282.42;;;;;;;23.97;38.10;102682.16;5124646;27;20468;-47
2022/01/15 00:38:49;;;;;;;392.17;283.33;;;;;;;23.94;37.88;102676.75;5124249;27;20152;-45
2022/01/15 00:41:18;;;;;;;388.27;285.30;;;;;;;23.90;38.02;102671.31;5124706;27;20027;-45
2022/01/15 00:43:47;;;;;;;395.60;281.35;;;;;;;23.87;38.28;102668.56;5125252;27;20566;-46
2022/01/15 00:46:15;;;;;;;386.00;282.17;;;;;;;23.87;37.80;102664.22;5124032;27;20472;-45
2022/01/15 00:48:44;;;;;;;382.55;281.05;;;;;;;23.87;37.94;102671.19;5124523;27;20031;-45
2022/01/15 00:51:12;;;;;;;363.77;268.05;;;;;;;23.99;37.75;102665.59;5124795;27;20057;-46
2022/01/15 00:53:41;;;;;;;388.85;279.02;;;;;;;23.91;37.86;102665.25;5124191;27;20031;-47
2022/01/15 00:56:10;;;;;;;381.70;277.00;;;;;;;23.89;37.93;102657.34;5124381;27;20031;-45
2022/01/15 00:58:39;;;;;;;371.63;276.05;;;;;;;23.86;38.17;102669.41;5124367;27;20050;-45
2022/01/15 01:01:07;;;;;;;385.02;281.00;;;;;;;23.91;37.87;102660.88;5124329;27;20065;-46
2022/01/15 01:03:36;;;;;;;380.75;277.10;;;;;;;23.86;38.30;102661.53;5124890;27;20079;-46
2022/01/15 01:06:05;;;;;;;370.27;269.45;;;;;;;23.81;38.02;102656.13;5124419;27;20027;-45
2022/01/15 01:08:35;;;;;;;385.38;280.55;;;;;;;23.80;38.46;102657.84;5083460;28;20622;-44
2022/01/15 01:11:11;;;;;;;396.92;281.42;;;;;;;23.82;38.31;102653.56;5082399;28;20047;-45
2022/01/15 01:24:21;;;;;;;371.63;273.00;;;;;;;23.77;38.13;102659.44;5083506;28;20035;-45
2022/01/15 01:27:03;;;;;;;380.08;276.90;;;;;;;23.69;38.17;102637.28;5083253;28;20279;-45
2022/01/15 01:30:21;;;;;;;384.60;284.80;;;;;;;23.71;38.32;102633.00;5083641;28;20119;-45
2022/01/15 01:32:47;;;;;;;383.15;274.27;;;;;;;23.71;38.63;102633.88;5078386;28;20060;-45
2022/01/15 01:35:13;;;;;;;384.20;277.08;;;;;;;23.68;38.23;102631.13;5082459;28;20696;-46
2022/01/15 01:37:46;;;;;;;;;;;;;;;23.75;38.45;102642.75;5084168;28;20481;-45
2022/01/15 01:42:53;;;;;;;390.42;281.50;;;;;;;23.69;38.63;102624.19;5082921;28;20031;-45
2022/01/15 01:45:22;;;;;;;389.83;282.92;;;;;;;23.69;38.53;102635.53;5083387;28;20146;-44
2022/01/15 01:47:51;;;;;;;391.55;283.10;;;;;;;23.68;38.60;102631.13;5081896;28;20040;-45
2022/01/15 01:50:31;;;;;;;393.23;285.77;;;;;;;23.65;38.30;102620.56;5083240;28;20504;-45
2022/01/15 01:53:00;;;;;;;390.20;281.25;;;;;;;23.67;38.32;102618.84;5082354;28;20099;-47
2022/01/15 01:55:29;;;;;;;390.45;286.90;;;;;;;23.64;38.62;102621.38;5082474;28;20031;-46
2022/01/15 01:57:59;;;;;;;395.42;287.48;;;;;;;23.58;38.62;102622.00;5081305;28;20394;-48
2022/01/15 02:00:30;;;;;;;394.98;283.40;;;;;;;23.60;38.75;102622.97;5083367;28;20024;-45
2022/01/15 02:02:59;;;;;;;399.70;291.45;;;;;;;23.58;38.46;102627.25;5083150;28;20028;-46
2022/01/15 02:05:29;;;;;;;377.25;280.00;;;;;;;23.54;38.31;102616.56;5083409;28;20028;-46
2022/01/15 02:07:57;;;;;;;396.20;290.40;;;;;;;23.57;38.75;102619.31;5113618;28;20055;-47
2022/01/15 02:10:26;;;;;;;392.65;284.23;;;;;;;23.57;38.60;102624.56;5123798;28;20062;-46
2022/01/15 02:12:55;;;;;;;405.65;293.20;;;;;;;23.60;38.40;102612.47;5106106;28;20034;-44
2022/01/15 02:15:24;;;;;;;387.55;282.58;;;;;;;23.52;38.98;102627.88;5105341;28;20821;-49
2022/01/15 02:17:54;;;;;;;388.60;287.38;;;;;;;23.52;38.50;102616.53;5123378;28;20448;-47
2022/01/15 02:23:44;;;;;;;395.25;287.88;;;;;;;23.54;38.71;102603.47;5128005;27;20046;-49
2022/01/15 02:25:51;;;;;;;390.52;284.00;;;;;;;23.52;38.59;102601.69;5122535;27;20031;-46
2022/01/15 02:28:22;;;;;;;404.13;292.48;;;;;;;23.52;38.99;102601.69;5127185;27;20049;-44
2022/01/15 02:31:00;;;;;;;400.40;289.45;;;;;;;23.51;38.53;102591.16;5127454;27;20547;-45
2022/01/15 02:33:29;;;;;;;397.27;287.40;;;;;;;23.49;38.78;102592.81;5127144;27;20034;-47
2022/01/15 02:36:00;;;;;;;394.77;288.83;;;;;;;23.49;38.47;102593.72;5127035;27;20042;-45
2022/01/15 02:38:29;;;;;;;396.35;288.42;;;;;;;23.46;38.80;102596.22;5127049;27;20023;-47
2022/01/15 02:40:58;;;;;;;396.10;290.50;;;;;;;23.45;38.99;102591.81;5127221;27;20019;-44
2022/01/15 02:43:33;;;;;;;397.88;286.90;;;;;;;23.45;38.72;102591.81;5127174;27;20088;-47
2022/01/15 02:46:19;;;;;;;389.55;292.65;;;;;;;23.43;38.95;102593.47;5126848;27;20429;-46
2022/01/15 02:48:51;;;;;;;408.17;299.30;;;;;;;23.48;38.95;102580.56;5127164;27;20354;-46
2022/01/15 02:51:22;;;;;;;415.13;301.45;;;;;;;23.43;39.06;102580.38;5126661;27;20693;-47
2022/01/15 02:53:55;;;;;;;396.45;292.52;;;;;;;23.43;38.90;102580.38;5127066;27;20038;-46
2022/01/15 02:56:30;;;;;;;395.15;296.75;;;;;;;23.41;39.21;102587.28;5127127;27;20027;-45
2022/01/15 02:59:00;;;;;;;398.10;290.85;;;;;;;23.44;38.68;102574.31;5126793;27;20532;-45
2022/01/15 03:01:29;;;;;;;402.15;289.92;;;;;;;23.46;38.73;102574.34;5126814;27;20076;-46
2022/01/15 03:03:57;;;;;;;405.48;294.73;;;;;;;23.41;38.80;102568.94;5126830;27;20126;-47
2022/01/15 03:06:26;;;;;;;396.77;293.10;;;;;;;23.46;38.66;102564.78;5126530;27;20023;-46
2022/01/15 03:08:55;;;;;;;399.83;294.25;;;;;;;23.40;38.86;102564.53;5126572;27;20027;-47
2022/01/15 03:11:24;;;;;;;393.90;291.85;;;;;;;23.41;39.19;102565.44;5126582;27;20050;-45
2022/01/15 03:13:53;;;;;;;406.02;295.10;;;;;;;23.39;38.79;102570.59;5126492;27;20027;-47
2022/01/15 03:16:22;;;;;;;401.50;297.02;;;;;;;23.39;38.80;102562.75;5125729;27;20384;-49
2022/01/15 03:18:51;;;;;;;395.15;287.90;;;;;;;23.37;38.70;102556.53;5126954;27;20075;-46
2022/01/15 03:21:20;;;;;;;405.23;294.35;;;;;;;23.41;39.16;102561.09;5097755;27;20034;-47
2022/01/15 03:23:48;;;;;;;405.05;294.83;;;;;;;23.39;38.83;102554.88;5126194;27;20027;-46
2022/01/15 03:26:17;;;;;;;412.98;305.65;;;;;;;23.39;38.80;102557.50;5125782;27;20496;-48
2022/01/15 03:28:45;;;;;;;403.95;300.70;;;;;;;23.37;38.82;102559.16;5126317;27;20023;-46
2022/01/15 03:31:14;;;;;;;417.20;308.65;;;;;;;23.34;39.08;102548.56;5126536;27;20038;-46
2022/01/15 03:33:43;;;;;;;403.90;295.70;;;;;;;23.37;39.28;102551.31;5125574;27;20023;-46
2022/01/15 03:36:12;;;;;;;406.27;300.38;;;;;;;23.35;39.04;102558.19;5125764;27;20046;-46
2022/01/15 03:38:41;;;;;;;403.27;300.17;;;;;;;23.33;39.27;102558.16;5125678;27;20100;-45
2022/01/15 03:41:09;;;;;;;411.95;305.30;;;;;;;23.35;38.89;102555.59;5107461;27;20035;-45
2022/01/15 03:43:37;;;;;;;420.48;309.75;;;;;;;23.36;39.00;102558.28;5125951;27;20104;-46
2022/01/15 03:46:06;;;;;;;405.80;307.75;;;;;;;23.37;38.92;102559.16;5125580;27;20061;-46
2022/01/15 03:48:34;;;;;;;409.20;295.05;;;;;;;23.33;39.14;102550.28;5107865;27;20084;-46
2022/01/15 03:51:04;;;;;;;399.42;297.23;;;;;;;23.38;39.23;102553.09;5125344;27;20023;-46
2022/01/15 03:53:32;;;;;;;401.98;298.40;;;;;;;23.39;39.07;102546.16;5107421;27;20083;-45
2022/01/15 03:56:01;;;;;;;409.80;298.98;;;;;;;23.36;38.97;102552.13;5125580;27;20023;-46
2022/01/15 03:58:30;;;;;;;411.27;303.90;;;;;;;23.35;39.07;102546.00;5125522;27;20890;-45
2022/01/15 04:00:58;;;;;;;408.98;300.90;;;;;;;23.34;38.88;102544.22;5125461;27;20042;-45
2022/01/15 04:03:27;;;;;;;419.92;301.73;;;;;;;23.36;39.10;102528.56;5125170;27;20031;-45
2022/01/15 04:05:56;;;;;;;408.63;301.75;;;;;;;23.31;39.23;102535.38;5125926;27;20487;-46
2022/01/15 04:08:24;;;;;;;415.35;300.40;;;;;;;23.32;39.14;102527.56;5125016;27;20047;-45
2022/01/15 04:10:53;;;;;;;414.92;303.95;;;;;;;23.31;39.37;102528.38;5106912;27;20062;-46
2022/01/15 04:13:22;;;;;;;408.35;300.05;;;;;;;23.29;39.40;102519.56;5125429;27;20230;-45
2022/01/15 04:15:53;;;;;;;419.08;305.85;;;;;;;23.31;39.38;102517.91;5125798;27;20109;-45
2022/01/15 04:18:22;;;;;;;415.17;304.58;;;;;;;23.30;39.32;102513.50;5125421;27;20072;-45
2022/01/15 04:20:51;;;;;;;415.63;298.52;;;;;;;23.32;39.25;102517.09;5125344;27;20098;-45
2022/01/15 04:23:20;;;;;;;407.83;302.58;;;;;;;23.27;39.22;102515.13;5124127;27;20034;-45
2022/01/15 04:25:48;;;;;;;409.23;297.58;;;;;;;23.26;39.12;102515.94;5124387;27;20129;-44
2022/01/15 04:28:17;;;;;;;419.02;304.75;;;;;;;23.25;39.09;102515.03;5106330;27;20035;-44
2022/01/15 04:30:48;;;;;;;420.45;307.73;;;;;;;23.27;39.11;102507.25;5124563;27;20387;-45
2022/01/15 04:33:16;;;;;;;410.15;299.35;;;;;;;23.25;39.42;102509.78;5094739;27;20038;-45
2022/01/15 04:35:45;;;;;;;405.33;297.13;;;;;;;23.27;39.37;102515.13;5124821;27;20516;-45
2022/01/15 04:38:14;;;;;;;412.92;302.50;;;;;;;23.27;39.11;102508.13;5124479;27;20038;-44
2022/01/15 04:40:43;;;;;;;417.67;306.75;;;;;;;23.26;39.20;102508.09;5124886;27;20639;-45
2022/01/15 04:43:11;;;;;;;408.95;300.77;;;;;;;23.25;39.08;102519.41;5124841;27;20046;-44
2022/01/15 04:45:40;;;;;;;417.33;302.88;;;;;;;23.20;39.51;102514.84;5124598;27;20059;-44
2022/01/15 04:48:09;;;;;;;413.10;303.67;;;;;;;23.23;39.40;102507.97;5124919;27;20052;-44
2022/01/15 04:50:38;;;;;;;414.65;297.50;;;;;;;23.20;39.11;102506.09;5089648;27;20043;-48
2022/01/15 04:53:08;;;;;;;422.10;309.38;;;;;;;23.18;39.24;102513.84;5124555;27;20163;-45
2022/01/15 04:55:38;;;;;;;411.77;306.40;;;;;;;23.20;39.22;102509.63;5124815;27;20034;-47
2022/01/15 04:58:07;;;;;;;412.05;301.50;;;;;;;23.18;39.01;102520.84;5124240;27;20042;-46
2022/01/15 05:00:36;;;;;;;418.88;306.70;;;;;;;23.17;39.15;102519.94;5124615;27;20034;-49
2022/01/15 05:03:05;;;;;;;418.95;307.48;;;;;;;23.19;39.20;102526.13;5124476;27;20038;-46
2022/01/15 05:05:34;;;;;;;414.85;304.50;;;;;;;23.19;39.41;102522.63;5105750;27;20019;-45
2022/01/15 05:08:05;;;;;;;419.05;311.65;;;;;;;23.15;39.31;102516.38;5095084;27;20142;-46
2022/01/15 05:10:34;;;;;;;430.45;312.30;;;;;;;23.14;39.23;102516.28;5124149;27;20031;-46
2022/01/15 05:13:02;;;;;;;412.45;308.05;;;;;;;23.06;39.66;102498.56;5124419;27;20031;-45
2022/01/15 05:15:31;;;;;;;412.80;306.30;;;;;;;23.13;39.25;102504.03;5123679;27;20027;-45
2022/01/15 05:18:00;;;;;;;420.05;311.65;;;;;;;23.16;39.04;102507.69;5124652;27;20882;-46
2022/01/15 05:20:28;;;;;;;420.02;309.13;;;;;;;23.12;39.41;102508.41;5124424;27;20387;-45
2022/01/15 05:22:57;;;;;;;422.40;309.30;;;;;;;23.16;39.42;102499.84;5123675;27;20035;-44
2022/01/15 05:25:25;;;;;;;410.10;308.08;;;;;;;23.16;39.27;102506.78;5123897;27;20490;-45
2022/01/15 05:27:53;;;;;;;420.60;312.15;;;;;;;23.13;39.06;102497.09;5095521;28;20365;-46
2022/01/15 05:30:22;;;;;;;418.27;310.35;;;;;;;23.16;39.20;102501.56;5123950;27;20039;-44
2022/01/15 05:32:49;;;;;;;424.30;312.85;;;;;;;23.00;39.48;102477.38;5123502;27;20076;-45
2022/01/15 05:35:25;;;;;;;425.65;313.35;;;;;;;23.04;39.28;102479.28;5123926;28;20113;-44
2022/01/15 05:37:55;;;;;;;421.60;308.90;;;;;;;23.07;39.45;102481.13;5106398;28;20304;-47
2022/01/15 05:40:24;;;;;;;412.10;304.95;;;;;;;23.10;39.65;102483.88;5123760;28;20084;-45
2022/01/15 05:42:53;;;;;;;425.58;315.20;;;;;;;23.11;39.26;102484.75;5124109;28;20088;-46
2022/01/15 05:45:24;;;;;;;426.83;313.10;;;;;;;23.11;39.25;102476.91;5124002;28;20019;-46
2022/01/15 05:47:52;;;;;;;429.88;310.27;;;;;;;23.10;39.42;102481.25;5123861;28;20756;-46
2022/01/15 05:50:21;;;;;;;429.50;318.15;;;;;;;23.10;39.38;102473.41;5124057;28;20023;-46
2022/01/15 05:52:50;;;;;;;416.40;308.98;;;;;;;23.08;39.23;102467.22;5105245;28;20472;-45
2022/01/15 05:55:19;;;;;;;425.88;313.92;;;;;;;23.08;39.56;102471.56;5123975;27;20053;-49
2022/01/15 05:57:47;;;;;;;429.27;316.35;;;;;;;23.06;39.20;102475.00;5127998;27;20034;-48
2022/01/15 06:00:16;;;;;;;414.85;309.60;;;;;;;23.05;39.32;102460.13;5127774;27;20030;-45
2022/01/15 06:02:44;;;;;;;421.05;313.55;;;;;;;23.04;39.49;102475.75;5127250;27;20438;-45
2022/01/15 06:05:13;;;;;;;428.50;311.75;;;;;;;22.82;39.66;102442.59;5127844;27;20072;-45
2022/01/15 06:07:41;;;;;;;422.75;312.55;;;;;;;23.03;39.54;102471.34;5127693;27;20047;-49
2022/01/15 06:10:10;;;;;;;414.02;305.20;;;;;;;23.03;39.49;102473.97;5128195;27;20448;-45
2022/01/15 06:12:44;;;;;;;428.67;313.63;;;;;;;23.06;39.65;102471.47;5127944;27;20058;-47
2022/01/15 06:15:13;;;;;;;419.25;314.17;;;;;;;23.05;39.31;102464.47;5127852;27;20392;-45
2022/01/15 06:17:42;;;;;;;428.48;316.75;;;;;;;23.03;39.79;102481.81;5127869;27;20777;-46
2022/01/15 06:20:13;;;;;;;424.17;310.92;;;;;;;22.98;39.84;102480.75;5127707;27;20365;-46
2022/01/15 06:22:41;;;;;;;432.52;313.92;;;;;;;23.04;39.31;102488.84;5127188;27;20476;-46
2022/01/15 06:25:10;;;;;;;434.25;313.95;;;;;;;23.04;39.48;102481.00;5127346;27;20117;-45
2022/01/15 06:27:39;;;;;;;419.25;315.95;;;;;;;23.02;39.67;102472.19;5127490;27;20033;-47
2022/01/15 06:30:07;;;;;;;422.30;309.30;;;;;;;23.03;39.59;102484.44;5127769;27;20031;-46
2022/01/15 06:32:36;;;;;;;419.85;312.90;;;;;;;23.01;39.65;102497.47;5127474;27;20476;-45
2022/01/15 06:35:07;;;;;;;417.23;308.55;;;;;;;23.05;39.65;102499.41;5127470;27;20063;-45
2022/01/15 06:37:36;;;;;;;427.90;311.63;;;;;;;23.02;39.43;102500.97;5093261;27;20030;-45
2022/01/15 06:40:05;;;;;;;427.73;317.48;;;;;;;23.00;39.38;102494.81;5127053;27;20031;-45
2022/01/15 06:42:35;;;;;;;422.30;312.45;;;;;;;23.02;39.60;102488.78;5127174;27;20595;-46
2022/01/15 06:45:06;;;;;;;428.02;315.83;;;;;;;22.98;39.75;102488.63;5126690;27;20451;-45
2022/01/15 06:47:34;;;;;;;420.95;312.38;;;;;;;23.03;39.47;102495.81;5127144;27;20055;-45
2022/01/15 06:50:05;;;;;;;416.65;310.20;;;;;;;23.00;39.82;102493.06;5108804;27;20019;-45
2022/01/15 06:52:34;;;;;;;417.70;307.17;;;;;;;22.97;39.51;102492.06;5126125;27;20035;-47
2022/01/15 06:55:05;;;;;;;416.40;311.20;;;;;;;22.92;39.56;102497.97;5126431;27;20460;-46
2022/01/15 06:57:34;;;;;;;428.75;315.17;;;;;;;22.98;39.50;102496.47;5126636;27;20046;-48
2022/01/15 07:00:04;;;;;;;417.80;314.25;;;;;;;22.97;39.81;102490.31;5126992;27;20448;-46
2022/01/15 07:02:33;;;;;;;429.23;314.55;;;;;;;22.96;39.42;102493.75;5127394;27;20475;-47
2022/01/15 07:05:01;;;;;;;423.38;309.23;;;;;;;22.96;39.47;102492.88;5126877;27;20084;-47
2022/01/15 07:07:30;;;;;;;429.05;313.88;;;;;;;22.98;39.79;102512.16;5108746;27;20039;-46
2022/01/15 07:09:58;;;;;;;423.90;315.92;;;;;;;23.00;39.56;102506.16;5126484;27;20410;-43
2022/01/15 07:12:26;;;;;;;421.38;314.33;;;;;;;22.99;39.91;102506.09;5126426;27;20038;-46
2022/01/15 07:14:55;;;;;;;430.52;315.63;;;;;;;23.00;39.72;102510.50;5099332;27;20023;-45
2022/01/15 07:17:23;;;;;;;425.45;314.67;;;;;;;22.99;39.49;102516.56;5126145;27;20468;-45
2022/01/15 07:19:52;;;;;;;428.90;319.52;;;;;;;23.02;39.32;102519.28;5126648;27;20502;-45
2022/01/15 07:22:20;;;;;;;426.75;318.35;;;;;;;23.04;39.73;102522.88;5126260;27;20023;-46
2022/01/15 07:24:48;;;;;;;425.90;318.25;;;;;;;23.00;39.50;102518.38;5108379;27;20031;-45
2022/01/15 07:27:17;;;;;;;427.10;314.13;;;;;;;22.98;39.87;102513.03;5125957;27;20035;-45
2022/01/15 07:29:45;;;;;;;415.58;306.83;;;;;;;23.00;39.32;102521.84;5126363;27;20511;-45
2022/01/15 07:32:13;;;;;;;429.77;309.27;;;;;;;23.02;39.37;102514.06;5126297;27;20118;-46
2022/01/15 07:34:42;;;;;;;429.13;310.55;;;;;;;23.05;39.42;102508.97;5125745;27;20070;-45
2022/01/15 07:37:10;;;;;;;417.45;313.17;;;;;;;23.00;39.32;102505.28;5125637;27;20035;-45
2022/01/15 07:39:38;;;;;;;415.92;305.60;;;;;;;23.04;39.50;102504.53;5126302;27;20176;-45
2022/01/15 07:42:08;;;;;;;410.67;303.40;;;;;;;22.99;39.33;102508.72;5126143;27;20039;-45
2022/01/15 07:44:36;;;;;;;419.92;302.88;;;;;;;22.98;39.39;102513.03;5126169;27;20144;-46
2022/01/15 07:47:05;;;;;;;406.42;299.63;;;;;;;23.00;39.28;102505.28;5097917;27;20594;-45
2022/01/15 07:49:34;;;;;;;411.50;299.90;;;;;;;23.01;39.26;102513.19;5126001;27;20023;-45
2022/01/15 07:52:03;;;;;;;409.02;300.10;;;;;;;23.03;39.65;102508.00;5107773;27;20043;-45
2022/01/15 07:54:32;;;;;;;417.30;304.77;;;;;;;23.06;39.64;102502.88;5107671;27;20146;-45
2022/01/15 07:57:00;;;;;;;407.40;300.45;;;;;;;23.05;39.64;102507.25;5126083;27;20023;-44
2022/01/15 07:59:29;;;;;;;423.85;304.75;;;;;;;23.08;39.35;102509.09;5125142;27;20464;-45
2022/01/15 08:01:58;;;;;;;423.05;308.85;;;;;;;23.08;39.64;102513.44;5126211;27;20031;-47
2022/01/15 08:04:27;;;;;;;416.50;302.60;;;;;;;23.04;39.62;102515.03;5125665;27;20531;-45
2022/01/15 08:06:55;;;;;;;401.55;300.17;;;;;;;23.04;39.42;102510.69;5124786;27;20055;-45
2022/01/15 08:09:24;;;;;;;414.52;299.90;;;;;;;23.01;39.45;102507.03;5107302;27;20030;-45
2022/01/15 08:11:53;;;;;;;421.98;307.75;;;;;;;23.06;39.42;102518.59;5125439;27;20087;-45
2022/01/15 08:14:21;;;;;;;412.45;302.73;;;;;;;23.06;39.32;102524.75;5125506;27;20333;-46
2022/01/15 08:16:49;;;;;;;421.60;306.40;;;;;;;23.08;39.31;102516.94;5125838;27;20077;-45
2022/01/15 08:19:18;;;;;;;417.58;303.45;;;;;;;23.09;39.34;102520.44;5125036;27;20434;-46
2022/01/15 08:25:10;;;;;;;425.05;309.13;;;;;;;23.11;39.90;102517.06;5124583;27;20049;-45
2022/01/15 08:27:39;;;;;;;415.50;304.65;;;;;;;23.11;39.75;102511.84;5125124;27;20027;-47
2022/01/15 08:30:08;;;;;;;412.25;306.45;;;;;;;23.08;39.78;102503.84;5124987;27;20031;-45
2022/01/15 08:32:37;;;;;;;418.55;307.38;;;;;;;23.08;39.61;102509.09;5125347;27;20031;-48
2022/01/15 08:35:06;;;;;;;424.77;311.40;;;;;;;23.12;39.88;102518.88;5125590;27;20023;-45
2022/01/15 08:37:37;;;;;;;430.30;312.40;;;;;;;23.06;40.02;102518.59;5125257;27;20035;-45
2022/01/15 08:40:08;;;;;;;427.67;310.63;;;;;;;23.07;40.01;102509.91;5125121;27;20065;-45
2022/01/15 08:42:38;;;;;;;420.23;308.60;;;;;;;23.02;39.67;102529.75;5125010;27;20031;-45
2022/01/15 08:45:08;;;;;;;424.27;311.30;;;;;;;23.05;39.97;102529.91;5124611;27;20452;-46
2022/01/15 08:47:36;;;;;;;422.42;316.05;;;;;;;23.12;39.98;102531.03;5124817;27;20078;-45
2022/01/15 08:50:06;;;;;;;426.20;311.83;;;;;;;23.12;39.93;102529.34;5124975;27;20027;-45
2022/01/15 08:52:35;;;;;;;431.88;310.80;;;;;;;23.10;40.00;102520.53;5124729;27;20054;-45
2022/01/15 08:55:05;;;;;;;423.58;313.65;;;;;;;23.10;40.16;102527.47;5125081;27;20026;-45
2022/01/15 08:57:33;;;;;;;424.20;312.77;;;;;;;23.13;39.97;102525.88;5124825;27;20487;-45
2022/01/15 09:03:26;;;;;;;421.98;309.92;;;;;;;23.09;39.99;102529.19;5080379;28;20034;-45
2022/01/15 09:09:26;;;;;;;426.27;310.95;;;;;;;23.14;39.55;102540.75;5038530;28;20103;-45
2022/01/15 09:11:55;;;;;;;423.63;310.88;;;;;;;23.11;39.70;102543.25;5039986;28;21117;-45
2022/01/15 09:14:25;;;;;;;420.85;311.42;;;;;;;23.17;39.79;102540.88;5040622;28;20481;-44
2022/01/15 09:16:53;;;;;;;426.02;312.38;;;;;;;23.14;39.99;102543.38;5040430;28;20028;-45
2022/01/15 09:19:22;;;;;;;438.08;321.25;;;;;;;23.15;40.06;102534.69;5040897;28;20182;-45
2022/01/15 09:21:52;;;;;;;420.27;309.70;;;;;;;23.14;39.69;102535.53;5040731;28;20494;-45
2022/01/15 09:24:24;;;;;;;421.15;316.27;;;;;;;23.17;39.71;102533.00;5040211;28;20453;-45
2022/01/15 09:32:10;;;;;;;432.17;319.17;;;;;;;23.18;39.90;102523.44;5029535;28;20041;-44
2022/01/15 09:34:39;;;;;;;431.05;320.02;;;;;;;23.19;39.67;102528.75;5069484;28;20133;-46
2022/01/15 09:37:08;;;;;;;438.75;322.10;;;;;;;23.17;40.01;102527.78;5064044;28;20446;-45
2022/01/15 09:39:37;;;;;;;427.15;317.45;;;;;;;23.25;39.61;102533.38;5082436;28;20412;-44
2022/01/15 09:42:06;;;;;;;431.67;322.75;;;;;;;23.17;39.60;102534.75;5083225;28;20030;-45
2022/01/15 09:44:35;;;;;;;433.55;318.63;;;;;;;23.19;39.95;102528.75;5083040;28;20333;-46
2022/01/15 09:47:05;;;;;;;430.58;320.52;;;;;;;23.18;39.70;102532.19;5083253;28;20396;-45
2022/01/15 09:49:34;;;;;;;436.45;322.13;;;;;;;23.21;39.67;102534.09;5054739;28;20185;-45
2022/01/15 09:52:04;;;;;;;438.70;324.27;;;;;;;23.21;39.66;102539.31;5083112;28;20147;-45
2022/01/15 09:54:33;;;;;;;431.35;317.77;;;;;;;23.23;39.74;102542.00;5083591;28;20684;-45
2022/01/15 09:57:02;;;;;;;432.58;320.00;;;;;;;23.26;39.68;102544.75;5083095;28;20819;-45
2022/01/15 09:59:29;;;;;;;436.70;327.48;;;;;;;23.29;39.43;102545.75;5081948;28;20028;-45
2022/01/15 10:02:02;;;;;;;437.92;320.67;;;;;;;23.28;39.85;102540.47;5074709;28;20032;-45
2022/01/15 10:04:32;;;;;;;431.95;317.15;;;;;;;23.23;39.68;102542.00;5082325;28;20118;-45
2022/01/15 10:07:14;;;;;;;424.75;318.65;;;;;;;23.16;39.82;102543.44;5081551;28;20024;-45
2022/01/15 10:09:43;;;;;;;434.90;308.13;;;;;;;23.19;39.73;102533.97;5118393;28;20112;-45
2022/01/15 10:12:13;;;;;;;419.42;304.38;;;;;;;23.23;39.60;102537.66;5123422;28;20067;-45
2022/01/15 10:14:43;;;;;;;426.13;306.55;;;;;;;23.27;39.77;102544.78;5105658;28;20382;-45
2022/01/15 10:17:33;;;;;;;422.30;307.95;;;;;;;23.29;39.48;102532.66;5124130;28;20031;-47
2022/01/15 10:20:04;;;;;;;426.40;307.83;;;;;;;23.28;39.60;102540.47;5106386;28;20376;-45
2022/01/15 10:22:34;;;;;;;424.40;307.38;;;;;;;23.23;39.74;102532.44;5123399;28;20038;-45
2022/01/15 10:25:05;;;;;;;426.73;304.77;;;;;;;23.28;39.55;102533.50;5122961;28;20476;-46
2022/01/15 10:30:58;;;;;;;425.48;305.70;;;;;;;23.25;39.88;102520.28;5059126;28;20042;-45
2022/01/15 10:33:28;;;;;;;422.35;305.33;;;;;;;23.27;39.65;102520.34;5043675;28;20506;-46
2022/01/15 10:35:56;;;;;;;430.17;305.63;;;;;;;23.27;40.07;102517.72;5059991;28;20242;-45
2022/01/15 10:38:25;;;;;;;420.73;310.65;;;;;;;23.30;39.70;102510.00;5059774;28;20068;-44
2022/01/15 10:40:55;;;;;;;414.50;296.83;;;;;;;23.25;39.74;102517.66;5042669;28;20040;-45
2022/01/15 10:43:33;;;;;;;406.70;289.70;;;;;;;23.20;39.69;102514.84;5062817;28;20037;-46
2022/01/15 10:46:02;;;;;;;401.98;287.85;;;;;;;23.26;39.84;102518.56;5063322;28;20059;-48
2022/01/15 10:48:37;;;;;;;401.77;286.80;;;;;;;23.15;39.74;102498.06;5062952;28;20498;-45
2022/01/15 10:51:10;;;;;;;401.40;286.15;;;;;;;23.24;40.11;102520.22;5062974;28;20044;-45
2022/01/15 10:53:46;;;;;;;406.42;289.23;;;;;;;23.23;40.26;102526.28;5063593;28;20370;-44
2022/01/15 10:56:16;;;;;;;399.58;284.85;;;;;;;23.26;39.91;102523.81;5063484;28;20486;-46
2022/01/15 10:58:44;;;;;;;400.02;285.77;;;;;;;23.27;39.93;102510.75;5063730;28;20029;-45
2022/01/15 11:01:27;;;;;;;407.83;292.90;;;;;;;23.32;39.94;102516.19;5074855;27;20087;-45
2022/01/15 11:03:56;;;;;;;413.80;295.58;;;;;;;23.30;39.85;102523.09;5127302;27;20312;-44
2022/01/15 11:06:43;;;;;;;408.15;297.30;;;;;;;23.32;40.12;102511.84;5126525;27;20023;-44
2022/01/15 11:09:12;;;;;;;406.38;290.17;;;;;;;23.32;40.37;102506.59;5126465;27;20093;-45
2022/01/15 11:11:55;;;;;;;405.30;285.10;;;;;;;23.42;40.24;102505.25;5126891;27;20159;-46
2022/01/15 11:14:24;;;;;;;392.42;284.45;;;;;;;23.46;39.81;102503.63;5126743;27;20087;-44
2022/01/15 11:16:54;;;;;;;390.40;278.48;;;;;;;23.45;39.85;102502.75;5126539;27;20062;-45
2022/01/15 11:19:23;;;;;;;385.45;270.05;;;;;;;23.46;39.86;102507.16;5107965;27;20054;-44
2022/01/15 11:21:53;;;;;;;381.67;267.95;;;;;;;23.51;39.87;102502.97;5126709;27;20118;-46
2022/01/15 11:24:23;;;;;;;380.38;267.02;;;;;;;23.55;40.28;102498.78;5107465;27;20058;-45
2022/01/15 11:26:55;;;;;;;375.15;262.83;;;;;;;23.62;39.86;102494.66;5108264;27;20023;-45
2022/01/15 11:29:24;;;;;;;375.83;261.02;;;;;;;23.73;39.90;102498.59;5126331;27;20031;-44
2022/01/15 11:32:00;;;;;;;364.75;255.68;;;;;;;23.77;39.56;102494.34;5126390;27;20042;-44
2022/01/15 11:34:28;;;;;;;371.23;254.32;;;;;;;23.85;39.61;102489.41;5126078;27;20385;-46
2022/01/15 11:36:57;;;;;;;356.88;252.63;;;;;;;23.93;39.33;102486.22;5126034;27;20380;-45
2022/01/15 11:39:30;;;;;;;363.13;247.48;;;;;;;23.93;39.25;102486.22;5125838;27;20258;-44
2022/01/15 11:42:00;;;;;;;348.67;240.18;;;;;;;23.98;39.45;102473.34;5126382;27;20126;-44
2022/01/15 11:44:33;;;;;;;339.55;234.10;;;;;;;24.03;39.05;102479.63;5126105;27;20372;-44